Time;durP1;ratioP1;P1;durP2;ratioP2;P2;SDS_P1;SDS_P2;PMS_P1;PMS_P2;Temp;Humidity;BMP_temperature;BMP_pressure;BME280_temperature;BME280_humidity;BME280_pressure;Samples;Min_cycle;Max_cycle;Signal;HPM_P1;HPM_P2
2021/09/04 00:00:32;;;;;;;;;21.33;18.00;;;;;;;;5019556;28;45353;-81
2021/09/04 00:02:57;;;;;;;;;19.75;19.00;;;;;;;;5025664;28;46357;-81
2021/09/04 00:05:22;;;;;;;;;18.33;17.00;;;;;;;;5030904;28;45996;-82
2021/09/04 00:07:48;;;;;;;;;19.00;18.67;;;;;;;;5032812;28;45366;-81
2021/09/04 00:10:13;;;;;;;;;19.50;17.75;;;;;;;;5035295;28;45417;-81
2021/09/04 00:12:39;;;;;;;;;16.75;15.50;;;;;;;;5028294;28;45709;-82
2021/09/04 00:15:05;;;;;;;;;20.75;18.00;;;;;;;;5033038;28;45315;-80
2021/09/04 00:17:30;;;;;;;;;19.25;19.25;;;;;;;;5033882;28;45474;-80
2021/09/04 00:19:55;;;;;;;;;23.67;17.00;;;;;;;;5032125;28;45930;-81
2021/09/04 00:22:20;;;;;;;;;17.67;16.33;;;;;;;;5035468;28;46089;-82
2021/09/04 00:24:45;;;;;;;;;19.33;17.00;;;;;;;;5031318;28;45881;-80
2021/09/04 00:27:11;;;;;;;;;14.00;13.00;;;;;;;;5032607;28;45502;-82
2021/09/04 00:29:36;;;;;;;;;22.00;19.67;;;;;;;;5032894;28;45557;-82
2021/09/04 00:32:02;;;;;;;;;19.75;17.50;;;;;;;;5032790;28;45534;-81
2021/09/04 00:34:27;;;;;;;;;19.00;17.75;;;;;;;;5034941;28;45296;-81
2021/09/04 00:36:52;;;;;;;;;21.00;19.33;;;;;;;;5033218;28;45562;-81
2021/09/04 00:39:18;;;;;;;;;25.33;18.00;;;;;;;;5032501;28;45436;-82
2021/09/04 00:41:44;;;;;;;;;21.67;16.00;;;;;;;;5032388;28;47667;-81
2021/09/04 00:44:13;;;;;;;;;20.00;17.25;;;;;;;;5032604;28;45482;-81
2021/09/04 00:46:38;;;;;;;;;23.00;18.25;;;;;;;;5034719;28;45429;-82
2021/09/04 00:49:03;;;;;;;;;21.00;19.00;;;;;;;;5033797;28;45372;-81
2021/09/04 00:51:28;;;;;;;;;17.67;17.00;;;;;;;;5031866;28;46494;-81
2021/09/04 00:53:54;;;;;;;;;18.00;15.00;;;;;;;;5031557;28;45987;-82
2021/09/04 00:56:19;;;;;;;;;17.50;17.50;;;;;;;;5032057;28;45509;-82
2021/09/04 00:58:45;;;;;;;;;20.50;17.00;;;;;;;;5034070;28;45624;-82
2021/09/04 01:01:10;;;;;;;;;23.50;18.25;;;;;;;;5024721;28;45457;-82
2021/09/04 01:03:35;;;;;;;;;21.67;19.33;;;;;;;;5032296;28;45530;-81
2021/09/04 01:06:00;;;;;;;;;19.33;17.00;;;;;;;;5030505;28;45578;-82
2021/09/04 01:08:26;;;;;;;;;22.67;17.00;;;;;;;;5034837;28;45507;-82
2021/09/04 01:10:51;;;;;;;;;17.50;17.50;;;;;;;;5032315;28;45454;-81
2021/09/04 01:13:17;;;;;;;;;21.00;17.25;;;;;;;;5035070;28;45485;-82
2021/09/04 01:15:43;;;;;;;;;16.50;16.50;;;;;;;;5032698;28;45564;-81
2021/09/04 01:18:09;;;;;;;;;20.50;17.00;;;;;;;;5032190;28;45341;-81
2021/09/04 01:20:34;;;;;;;;;20.00;18.75;;;;;;;;5031678;28;45636;-82
2021/09/04 01:23:00;;;;;;;;;17.00;15.00;;;;;;;;5031996;28;45438;-82
2021/09/04 01:25:26;;;;;;;;;17.25;17.25;;;;;;;;5034560;28;45434;-80
2021/09/04 01:27:52;;;;;;;;;19.25;18.50;;;;;;;;5045489;28;45443;-81
2021/09/04 01:30:17;;;;;;;;;20.50;15.00;;;;;;;;5026269;28;45512;-81
2021/09/04 01:32:42;;;;;;;;;18.00;15.75;;;;;;;;5030440;28;45292;-80
2021/09/04 01:35:09;;;;;;;;;18.33;16.67;;;;;;;;5031260;28;45435;-81
2021/09/04 01:37:34;;;;;;;;;17.00;17.00;;;;;;;;5033231;28;45518;-82
2021/09/04 01:40:00;;;;;;;;;19.25;18.00;;;;;;;;5025774;28;48515;-81
2021/09/04 01:42:25;;;;;;;;;20.67;17.67;;;;;;;;5029535;28;45406;-81
2021/09/04 01:44:50;;;;;;;;;18.25;17.50;;;;;;;;5032451;28;45541;-81
2021/09/04 01:47:15;;;;;;;;;21.00;15.00;;;;;;;;5030833;28;45465;-81
2021/09/04 01:49:40;;;;;;;;;19.67;16.33;;;;;;;;5032923;28;46013;-79
2021/09/04 01:52:06;;;;;;;;;19.67;19.00;;;;;;;;5034067;28;45931;-81
2021/09/04 01:54:31;;;;;;;;;21.00;19.25;;;;;;;;5031431;28;45725;-81
2021/09/04 01:56:59;;;;;;;;;17.33;15.67;;;;;;;;5031730;28;45348;-81
2021/09/04 01:59:24;;;;;;;;;17.50;16.25;;;;;;;;5032865;28;46620;-81
2021/09/04 02:01:49;;;;;;;;;16.00;16.00;;;;;;;;5018067;28;45435;-81
2021/09/04 02:04:15;;;;;;;;;21.67;19.33;;;;;;;;5033871;28;45786;-81
2021/09/04 02:06:40;;;;;;;;;18.00;17.33;;;;;;;;5027407;28;45522;-81
2021/09/04 02:09:05;;;;;;;;;18.67;16.67;;;;;;;;5032682;28;45895;-81
2021/09/04 02:11:30;;;;;;;;;19.00;17.50;;;;;;;;5030355;28;45247;-81
2021/09/04 02:13:55;;;;;;;;;19.33;18.00;;;;;;;;5032891;28;45371;-80
2021/09/04 02:16:21;;;;;;;;;17.00;15.33;;;;;;;;5035714;28;45419;-81
2021/09/04 02:18:46;;;;;;;;;17.00;17.00;;;;;;;;5031952;28;46074;-82
2021/09/04 02:21:11;;;;;;;;;20.00;19.33;;;;;;;;5030947;28;45738;-81
2021/09/04 02:23:36;;;;;;;;;22.33;16.33;;;;;;;;5032463;28;45240;-82
2021/09/04 02:26:02;;;;;;;;;18.50;15.50;;;;;;;;5031612;28;45256;-81
2021/09/04 02:28:27;;;;;;;;;22.67;18.33;;;;;;;;5036123;28;45478;-81
2021/09/04 02:30:52;;;;;;;;;20.00;18.75;;;;;;;;5025620;28;45677;-81
2021/09/04 02:33:17;;;;;;;;;17.67;14.67;;;;;;;;5030827;28;45338;-80
2021/09/04 02:35:43;;;;;;;;;18.00;16.00;;;;;;;;5032046;28;45473;-81
2021/09/04 02:38:08;;;;;;;;;21.25;18.00;;;;;;;;5029467;28;48412;-81
2021/09/04 02:40:33;;;;;;;;;16.75;15.50;;;;;;;;5033354;28;45707;-81
2021/09/04 02:42:59;;;;;;;;;16.67;15.67;;;;;;;;5031134;28;45517;-82
2021/09/04 02:45:24;;;;;;;;;17.00;15.00;;;;;;;;5031157;28;45558;-81
2021/09/04 02:47:49;;;;;;;;;20.67;17.67;;;;;;;;5032995;28;45497;-81
2021/09/04 02:50:14;;;;;;;;;17.00;16.33;;;;;;;;5033906;28;50947;-81
2021/09/04 02:52:39;;;;;;;;;19.00;18.00;;;;;;;;5032648;28;45564;-81
2021/09/04 02:55:05;;;;;;;;;18.67;16.00;;;;;;;;5035971;28;45564;-79
2021/09/04 02:57:30;;;;;;;;;18.75;18.25;;;;;;;;5032541;28;48115;-81
2021/09/04 02:59:56;;;;;;;;;16.33;16.33;;;;;;;;5033121;28;45567;-80
2021/09/04 03:02:21;;;;;;;;;19.67;19.33;;;;;;;;5032893;28;45520;-81
2021/09/04 03:04:46;;;;;;;;;19.50;15.75;;;;;;;;5037627;28;46125;-81
2021/09/04 03:07:11;;;;;;;;;19.00;18.00;;;;;;;;5036038;28;45693;-81
2021/09/04 03:09:37;;;;;;;;;22.00;16.00;;;;;;;;5031833;28;45513;-81
2021/09/04 03:12:03;;;;;;;;;21.00;17.00;;;;;;;;5033576;28;45434;-81
2021/09/04 03:14:29;;;;;;;;;19.75;18.75;;;;;;;;5033213;28;45342;-81
2021/09/04 03:16:54;;;;;;;;;18.67;17.00;;;;;;;;5030005;28;45446;-80
2021/09/04 03:19:19;;;;;;;;;18.67;17.33;;;;;;;;5033475;28;45581;-81
2021/09/04 03:21:44;;;;;;;;;17.67;17.33;;;;;;;;5030052;28;45567;-81
2021/09/04 03:24:09;;;;;;;;;19.33;16.00;;;;;;;;5029613;28;45711;-81
2021/09/04 03:26:35;;;;;;;;;19.33;17.67;;;;;;;;5028576;28;47178;-81
2021/09/04 03:29:00;;;;;;;;;21.00;19.00;;;;;;;;5029197;28;46518;-81
2021/09/04 03:31:25;;;;;;;;;17.33;15.33;;;;;;;;5033169;28;45831;-81
2021/09/04 03:33:50;;;;;;;;;18.67;17.33;;;;;;;;5031680;28;45635;-81
2021/09/04 03:36:15;;;;;;;;;18.67;15.67;;;;;;;;5028310;28;47287;-81
2021/09/04 03:38:41;;;;;;;;;23.33;18.00;;;;;;;;5029854;28;45500;-81
2021/09/04 03:41:06;;;;;;;;;21.00;17.67;;;;;;;;5028931;28;45533;-81
2021/09/04 03:43:31;;;;;;;;;18.75;17.00;;;;;;;;5032214;28;45359;-81
2021/09/04 03:45:56;;;;;;;;;15.33;15.00;;;;;;;;5031749;28;45473;-81
2021/09/04 03:48:22;;;;;;;;;21.67;18.33;;;;;;;;5029791;28;45565;-81
2021/09/04 03:50:47;;;;;;;;;19.75;16.00;;;;;;;;5029875;28;45388;-81
2021/09/04 03:53:12;;;;;;;;;17.00;17.00;;;;;;;;5029331;28;45500;-81
2021/09/04 03:55:37;;;;;;;;;24.00;19.00;;;;;;;;5032291;28;45491;-81
2021/09/04 03:58:02;;;;;;;;;21.00;18.00;;;;;;;;5031289;28;45463;-81
2021/09/04 04:00:28;;;;;;;;;17.33;17.33;;;;;;;;5029587;28;45491;-80
2021/09/04 04:02:53;;;;;;;;;20.33;17.67;;;;;;;;5029118;28;45451;-81
2021/09/04 04:05:18;;;;;;;;;18.67;16.33;;;;;;;;5031930;28;45527;-81
2021/09/04 04:07:43;;;;;;;;;16.67;16.67;;;;;;;;5033105;28;45563;-81
2021/09/04 04:10:09;;;;;;;;;18.67;17.33;;;;;;;;5034383;28;45457;-81
2021/09/04 04:12:35;;;;;;;;;21.25;17.50;;;;;;;;5033855;28;45557;-81
2021/09/04 04:15:00;;;;;;;;;18.75;18.50;;;;;;;;5032206;28;45403;-81
2021/09/04 04:17:25;;;;;;;;;19.50;18.75;;;;;;;;5034392;28;45386;-81
2021/09/04 04:19:50;;;;;;;;;19.00;16.00;;;;;;;;5033312;28;45487;-81
2021/09/04 04:22:16;;;;;;;;;22.33;16.00;;;;;;;;5034443;28;45619;-81
2021/09/04 04:24:41;;;;;;;;;19.33;17.00;;;;;;;;5032350;28;46524;-81
2021/09/04 04:27:07;;;;;;;;;17.00;14.67;;;;;;;;5032672;28;45380;-81
2021/09/04 04:29:32;;;;;;;;;20.75;17.50;;;;;;;;5020360;28;45371;-81
2021/09/04 04:31:57;;;;;;;;;18.33;17.67;;;;;;;;5031907;28;45229;-81
2021/09/04 04:34:22;;;;;;;;;15.33;14.00;;;;;;;;5031002;28;47395;-81
2021/09/04 04:36:48;;;;;;;;;21.67;19.00;;;;;;;;5031060;28;45830;-81
2021/09/04 04:39:13;;;;;;;;;17.00;15.33;;;;;;;;5031227;28;45329;-81
2021/09/04 04:41:39;;;;;;;;;16.00;15.50;;;;;;;;5032378;28;45420;-81
2021/09/04 04:44:04;;;;;;;;;17.25;16.50;;;;;;;;5031644;28;45915;-81
2021/09/04 04:46:29;;;;;;;;;19.33;17.00;;;;;;;;5034902;28;45462;-81
2021/09/04 04:48:54;;;;;;;;;17.67;17.33;;;;;;;;5033316;28;45509;-81
2021/09/04 04:51:19;;;;;;;;;19.67;18.33;;;;;;;;5032058;28;49507;-81
2021/09/04 04:53:45;;;;;;;;;16.67;16.00;;;;;;;;5032426;28;46457;-81
2021/09/04 04:56:10;;;;;;;;;17.33;16.67;;;;;;;;5032111;28;45604;-81
2021/09/04 04:58:35;;;;;;;;;19.33;18.67;;;;;;;;5033873;28;45402;-80
2021/09/04 05:01:00;;;;;;;;;17.33;17.33;;;;;;;;5028008;28;45491;-81
2021/09/04 05:03:25;;;;;;;;;16.00;14.67;;;;;;;;5031551;28;46412;-81
2021/09/04 05:05:51;;;;;;;;;19.33;18.67;;;;;;;;5030143;28;45489;-81
2021/09/04 05:08:16;;;;;;;;;17.25;15.75;;;;;;;;5031844;28;45437;-81
2021/09/04 05:10:41;;;;;;;;;20.33;17.67;;;;;;;;5033804;28;45354;-81
2021/09/04 05:13:07;;;;;;;;;18.33;16.67;;;;;;;;5023700;28;48241;-81
2021/09/04 05:15:32;;;;;;;;;23.67;16.33;;;;;;;;5029004;28;45473;-81
2021/09/04 05:17:57;;;;;;;;;19.00;15.33;;;;;;;;5030766;28;45549;-81
2021/09/04 05:20:22;;;;;;;;;17.33;14.33;;;;;;;;5030636;28;45572;-81
2021/09/04 05:22:47;;;;;;;;;19.00;16.33;;;;;;;;5031171;28;46257;-80
2021/09/04 05:25:13;;;;;;;;;15.33;15.00;;;;;;;;5032330;28;45462;-80
2021/09/04 05:27:38;;;;;;;;;17.25;14.00;;;;;;;;5030134;28;45488;-81
2021/09/04 05:30:04;;;;;;;;;19.67;16.67;;;;;;;;5029434;28;45460;-81
2021/09/04 05:32:29;;;;;;;;;16.50;13.25;;;;;;;;5030096;28;46277;-81
2021/09/04 05:34:54;;;;;;;;;17.67;15.33;;;;;;;;5031094;28;45450;-81
2021/09/04 05:37:20;;;;;;;;;18.67;18.67;;;;;;;;5034713;28;45415;-81
2021/09/04 05:39:45;;;;;;;;;19.33;17.00;;;;;;;;5030206;28;45518;-80
2021/09/04 05:42:11;;;;;;;;;25.25;18.75;;;;;;;;5030928;28;46212;-81
2021/09/04 05:44:36;;;;;;;;;18.25;16.25;;;;;;;;5030416;28;46093;-81
2021/09/04 05:47:01;;;;;;;;;17.67;17.67;;;;;;;;5030408;28;45640;-81
2021/09/04 05:49:26;;;;;;;;;22.00;16.75;;;;;;;;5031618;28;45446;-80
2021/09/04 05:51:51;;;;;;;;;17.00;16.33;;;;;;;;5031428;28;46531;-81
2021/09/04 05:54:17;;;;;;;;;20.33;16.00;;;;;;;;5030352;28;46684;-81
2021/09/04 05:56:42;;;;;;;;;16.50;16.25;;;;;;;;5030065;28;45425;-81
2021/09/04 05:59:07;;;;;;;;;19.33;19.00;;;;;;;;5031075;28;45526;-81
2021/09/04 06:01:32;;;;;;;;;17.67;15.00;;;;;;;;5034132;28;45638;-81
2021/09/04 06:03:58;;;;;;;;;18.33;16.00;;;;;;;;5031804;28;45385;-80
2021/09/04 06:06:23;;;;;;;;;16.50;15.50;;;;;;;;5031268;28;46943;-81
2021/09/04 06:08:48;;;;;;;;;18.00;14.67;;;;;;;;5029561;28;45866;-81
2021/09/04 06:11:13;;;;;;;;;14.00;14.00;;;;;;;;5030323;28;46005;-80
2021/09/04 06:13:39;;;;;;;;;18.00;17.33;;;;;;;;5031820;28;45560;-81
2021/09/04 06:16:04;;;;;;;;;16.67;15.33;;;;;;;;5031687;28;45458;-80
2021/09/04 06:18:29;;;;;;;;;16.67;15.67;;;;;;;;5030075;28;45565;-81
2021/09/04 06:20:54;;;;;;;;;16.33;16.33;;;;;;;;5028463;28;47158;-81
2021/09/04 06:23:19;;;;;;;;;16.33;16.33;;;;;;;;5030846;28;45476;-81
2021/09/04 06:25:45;;;;;;;;;18.00;16.33;;;;;;;;5030380;28;45685;-81
2021/09/04 06:28:10;;;;;;;;;17.67;16.00;;;;;;;;5032967;28;45782;-81
2021/09/04 06:30:35;;;;;;;;;23.00;17.67;;;;;;;;5030708;28;46285;-80
2021/09/04 06:33:01;;;;;;;;;21.00;17.50;;;;;;;;5031002;28;45450;-81
2021/09/04 06:35:26;;;;;;;;;21.00;18.25;;;;;;;;5029247;28;45740;-81
2021/09/04 06:37:51;;;;;;;;;20.25;15.75;;;;;;;;5031033;28;45364;-80
2021/09/04 06:40:16;;;;;;;;;14.67;13.33;;;;;;;;5026964;28;45520;-80
2021/09/04 06:42:42;;;;;;;;;17.00;16.67;;;;;;;;5030026;28;45439;-81
2021/09/04 06:45:08;;;;;;;;;21.25;16.25;;;;;;;;5030167;28;45421;-81
2021/09/04 06:47:33;;;;;;;;;21.00;19.50;;;;;;;;5029812;28;45475;-81
2021/09/04 06:49:58;;;;;;;;;22.67;16.33;;;;;;;;5030078;28;46266;-80
2021/09/04 06:52:23;;;;;;;;;16.33;15.00;;;;;;;;5032727;28;45592;-80
2021/09/04 06:54:49;;;;;;;;;19.33;16.33;;;;;;;;5031561;28;45300;-81
2021/09/04 06:57:14;;;;;;;;;18.67;18.67;;;;;;;;5029494;28;45626;-81
2021/09/04 06:59:39;;;;;;;;;20.33;15.33;;;;;;;;5028511;28;47126;-81
2021/09/04 07:02:04;;;;;;;;;22.00;18.33;;;;;;;;5028822;28;45588;-81
2021/09/04 07:04:29;;;;;;;;;17.00;17.00;;;;;;;;5033123;28;45336;-81
2021/09/04 07:06:55;;;;;;;;;18.00;17.67;;;;;;;;5031363;28;45723;-81
2021/09/04 07:09:20;;;;;;;;;19.67;16.00;;;;;;;;5029480;28;46022;-81
2021/09/04 07:11:45;;;;;;;;;22.00;16.00;;;;;;;;5030212;28;45333;-81
2021/09/04 07:14:10;;;;;;;;;19.00;17.33;;;;;;;;5029655;28;45332;-81
2021/09/04 07:16:36;;;;;;;;;19.67;18.33;;;;;;;;5032800;28;45327;-80
2021/09/04 07:19:01;;;;;;;;;22.00;19.75;;;;;;;;5031058;28;45442;-81
2021/09/04 07:21:26;;;;;;;;;25.67;20.33;;;;;;;;5028742;28;46829;-81
2021/09/04 07:23:51;;;;;;;;;20.33;19.67;;;;;;;;5029366;28;45534;-81
2021/09/04 07:26:16;;;;;;;;;18.67;18.00;;;;;;;;5029332;28;45484;-81
2021/09/04 07:28:42;;;;;;;;;18.67;17.67;;;;;;;;5032198;28;45583;-81
2021/09/04 07:31:07;;;;;;;;;22.33;20.00;;;;;;;;5032218;28;45240;-81
2021/09/04 07:33:32;;;;;;;;;20.67;16.67;;;;;;;;5033790;28;45501;-81
2021/09/04 07:35:57;;;;;;;;;23.67;17.67;;;;;;;;5029716;28;45737;-81
2021/09/04 07:38:26;;;;;;;;;20.33;17.67;;;;;;;;5032919;28;45288;-81
2021/09/04 07:40:51;;;;;;;;;22.25;19.00;;;;;;;;5033565;28;45986;-82
2021/09/04 07:43:17;;;;;;;;;21.75;17.75;;;;;;;;5036256;28;45358;-81
2021/09/04 07:45:42;;;;;;;;;21.00;17.67;;;;;;;;5033295;28;45512;-81
2021/09/04 07:48:07;;;;;;;;;19.75;19.00;;;;;;;;5032346;28;48300;-80
2021/09/04 07:50:33;;;;;;;;;21.00;19.33;;;;;;;;5032096;28;45437;-81
2021/09/04 07:52:58;;;;;;;;;20.75;16.25;;;;;;;;5031833;28;45526;-81
2021/09/04 07:55:24;;;;;;;;;15.75;14.50;;;;;;;;5035182;28;45642;-82
2021/09/04 07:57:49;;;;;;;;;21.67;19.33;;;;;;;;5032238;28;45453;-81
2021/09/04 08:00:14;;;;;;;;;23.67;19.33;;;;;;;;5032483;28;45491;-81
2021/09/04 08:02:40;;;;;;;;;23.00;19.50;;;;;;;;5033070;28;45490;-81
2021/09/04 08:05:05;;;;;;;;;23.00;19.00;;;;;;;;5032757;28;45411;-81
2021/09/04 08:07:31;;;;;;;;;23.50;20.25;;;;;;;;5035281;28;45312;-81
2021/09/04 08:09:56;;;;;;;;;24.25;20.50;;;;;;;;5033775;28;45642;-81
2021/09/04 08:12:21;;;;;;;;;21.33;20.67;;;;;;;;5034517;28;45852;-82
2021/09/04 08:14:47;;;;;;;;;20.00;19.25;;;;;;;;5032354;28;45241;-81
2021/09/04 08:17:12;;;;;;;;;21.33;19.67;;;;;;;;5032712;28;46493;-80
2021/09/04 08:19:37;;;;;;;;;21.00;21.00;;;;;;;;5034711;28;45462;-82
2021/09/04 08:22:03;;;;;;;;;21.67;21.67;;;;;;;;5033662;28;45607;-81
2021/09/04 08:24:29;;;;;;;;;23.75;21.25;;;;;;;;5031555;28;45751;-81
2021/09/04 08:26:54;;;;;;;;;24.00;20.50;;;;;;;;5031688;28;48131;-82
2021/09/04 08:29:19;;;;;;;;;20.67;19.67;;;;;;;;5031598;28;46137;-82
2021/09/04 08:31:44;;;;;;;;;24.00;22.00;;;;;;;;5034069;28;45496;-81
2021/09/04 08:34:09;;;;;;;;;23.67;19.33;;;;;;;;5034766;28;45426;-81
2021/09/04 08:36:35;;;;;;;;;27.33;24.00;;;;;;;;5033156;28;47749;-81
2021/09/04 08:39:00;;;;;;;;;32.00;27.00;;;;;;;;5032240;28;45647;-80
2021/09/04 08:41:25;;;;;;;;;22.67;20.33;;;;;;;;5032419;28;45628;-82
2021/09/04 08:43:51;;;;;;;;;27.00;23.00;;;;;;;;5032150;28;45573;-81
2021/09/04 08:46:16;;;;;;;;;27.33;21.67;;;;;;;;5033555;28;48558;-82
2021/09/04 08:48:42;;;;;;;;;23.67;22.33;;;;;;;;5030855;28;45788;-82
2021/09/04 08:51:07;;;;;;;;;21.75;21.75;;;;;;;;5031487;28;45493;-82
2021/09/04 08:53:32;;;;;;;;;21.33;19.33;;;;;;;;5022220;28;45364;-83
2021/09/04 08:55:58;;;;;;;;;25.33;21.00;;;;;;;;5031407;28;45417;-82
2021/09/04 08:58:23;;;;;;;;;23.00;21.00;;;;;;;;5035903;28;45418;-82
2021/09/04 09:00:48;;;;;;;;;19.67;18.33;;;;;;;;5016441;28;45591;-83
2021/09/04 09:03:25;;;;;;;;;26.67;21.33;;;;;;;;5030440;28;45494;-82
2021/09/04 09:05:51;;;;;;;;;22.00;21.25;;;;;;;;5029892;28;48217;-81
2021/09/04 09:08:23;;;;;;;;;29.50;27.00;;;;;;;;5031224;28;45348;-82
2021/09/04 09:10:49;;;;;;;;;22.00;18.50;;;;;;;;5032529;28;45577;-82
2021/09/04 09:13:18;;;;;;;;;24.50;21.00;;;;;;;;5032809;28;45387;-82
2021/09/04 09:15:43;;;;;;;;;25.25;21.00;;;;;;;;5031168;28;46246;-82
2021/09/04 09:18:13;;;;;;;;;20.75;19.25;;;;;;;;5030687;28;45335;-82
2021/09/04 09:20:39;;;;;;;;;29.50;24.00;;;;;;;;5031410;28;45876;-82
2021/09/04 09:23:09;;;;;;;;;24.25;23.50;;;;;;;;5030468;28;45512;-82
2021/09/04 09:25:35;;;;;;;;;25.25;23.25;;;;;;;;5032013;28;47633;-82
2021/09/04 09:28:00;;;;;;;;;27.25;21.00;;;;;;;;5032201;28;45575;-82
2021/09/04 09:30:29;;;;;;;;;20.00;20.00;;;;;;;;5030522;28;45534;-82
2021/09/04 09:32:54;;;;;;;;;27.00;21.75;;;;;;;;5030431;28;45352;-82
2021/09/04 09:35:28;;;;;;;;;19.25;17.50;;;;;;;;5030912;28;45604;-82
2021/09/04 09:37:53;;;;;;;;;22.50;19.75;;;;;;;;5031715;28;46638;-82
2021/09/04 09:40:25;;;;;;;;;21.00;19.67;;;;;;;;5034280;28;45355;-82
2021/09/04 09:42:50;;;;;;;;;21.75;19.50;;;;;;;;5030693;28;45557;-82
2021/09/04 09:45:15;;;;;;;;;22.00;21.33;;;;;;;;5030130;28;46145;-82
2021/09/04 09:47:52;;;;;;;;;22.33;21.00;;;;;;;;5029945;28;45405;-82
2021/09/04 09:50:17;;;;;;;;;23.00;21.00;;;;;;;;5029544;28;45474;-82
2021/09/04 09:52:44;;;;;;;;;20.75;18.75;;;;;;;;5027247;28;45424;-82
2021/09/04 09:55:09;;;;;;;;;25.00;23.25;;;;;;;;5032753;28;45550;-82
2021/09/04 09:57:34;;;;;;;;;22.00;19.75;;;;;;;;5031345;28;45565;-82
2021/09/04 10:00:01;;;;;;;;;24.50;20.50;;;;;;;;5029747;28;45479;-82
2021/09/04 10:02:26;;;;;;;;;24.50;21.25;;;;;;;;5029618;28;45509;-82
2021/09/04 10:04:52;;;;;;;;;29.25;26.75;;;;;;;;5031262;28;46205;-82
2021/09/04 10:07:18;;;;;;;;;25.75;22.00;;;;;;;;5031904;28;45727;-82
2021/09/04 10:09:44;;;;;;;;;28.25;24.50;;;;;;;;5030707;28;45592;-82
2021/09/04 10:12:09;;;;;;;;;20.75;20.50;;;;;;;;5029579;28;45515;-82
2021/09/04 10:14:35;;;;;;;;;22.50;20.00;;;;;;;;5030463;28;46333;-81
2021/09/04 10:17:02;;;;;;;;;26.50;22.50;;;;;;;;5029751;28;45588;-81
2021/09/04 10:19:28;;;;;;;;;26.00;22.25;;;;;;;;5032482;28;45516;-81
2021/09/04 10:21:58;;;;;;;;;29.50;21.50;;;;;;;;5024923;28;45385;-81
2021/09/04 10:24:44;;;;;;;;;26.75;24.00;;;;;;;;5029007;28;47025;-81
2021/09/04 10:27:13;;;;;;;;;25.50;23.50;;;;;;;;5029263;28;45730;-81
2021/09/04 10:29:42;;;;;;;;;21.00;18.25;;;;;;;;5030479;28;45493;-81
2021/09/04 10:32:12;;;;;;;;;24.25;20.75;;;;;;;;5029132;28;45744;-82
2021/09/04 10:34:38;;;;;;;;;20.50;18.00;;;;;;;;5032051;28;46425;-81
2021/09/04 10:37:16;;;;;;;;;20.75;20.75;;;;;;;;5030961;28;45751;-82
2021/09/04 10:40:20;;;;;;;;;22.25;20.25;;;;;;;;5029946;28;45272;-82
2021/09/04 10:42:45;;;;;;;;;24.00;21.25;;;;;;;;4976381;28;45589;-82
2021/09/04 10:45:11;;;;;;;;;23.67;21.00;;;;;;;;4993306;28;45435;-81
2021/09/04 10:47:47;;;;;;;;;23.25;19.50;;;;;;;;4986893;28;45788;-81
2021/09/04 10:50:15;;;;;;;;;19.00;17.00;;;;;;;;4987553;28;45857;-81
2021/09/04 10:52:46;;;;;;;;;17.75;16.75;;;;;;;;4990444;28;45365;-81
2021/09/04 10:55:20;;;;;;;;;21.50;18.75;;;;;;;;4990131;28;46716;-81
2021/09/04 10:57:47;;;;;;;;;24.00;23.25;;;;;;;;4987611;28;45924;-82
2021/09/04 11:00:22;;;;;;;;;24.50;21.00;;;;;;;;4986746;28;45737;-81
2021/09/04 11:03:07;;;;;;;;;23.00;23.00;;;;;;;;4988537;28;45348;-81
2021/09/04 11:05:51;;;;;;;;;24.25;21.50;;;;;;;;4965126;28;48522;-81
2021/09/04 11:08:19;;;;;;;;;30.50;24.00;;;;;;;;4994275;28;45736;-81
2021/09/04 11:10:46;;;;;;;;;19.50;18.00;;;;;;;;4979659;28;45531;-81
2021/09/04 11:13:11;;;;;;;;;26.75;26.00;;;;;;;;5004234;28;45487;-82
2021/09/04 11:15:37;;;;;;;;;27.67;24.00;;;;;;;;5033622;28;45546;-82
2021/09/04 11:18:02;;;;;;;;;25.50;21.25;;;;;;;;5035114;28;45601;-81
2021/09/04 11:20:28;;;;;;;;;19.33;18.00;;;;;;;;5036457;28;45491;-82
2021/09/04 11:22:53;;;;;;;;;19.50;19.25;;;;;;;;5037411;28;45375;-81
2021/09/04 11:25:21;;;;;;;;;17.00;14.67;;;;;;;;5038099;28;48698;-81
2021/09/04 11:27:47;;;;;;;;;22.75;18.75;;;;;;;;5035472;28;45810;-81
2021/09/04 11:30:20;;;;;;;;;20.75;18.00;;;;;;;;5035224;28;45481;-81
2021/09/04 11:32:45;;;;;;;;;18.00;17.25;;;;;;;;5036403;28;45327;-81
2021/09/04 11:35:11;;;;;;;;;15.25;15.25;;;;;;;;5035022;28;45528;-80
2021/09/04 11:37:39;;;;;;;;;24.75;21.00;;;;;;;;5036370;28;45596;-80
2021/09/04 11:40:13;;;;;;;;;18.50;16.75;;;;;;;;5037388;28;45442;-81
2021/09/04 11:42:39;;;;;;;;;18.25;16.75;;;;;;;;5034809;28;45587;-80
2021/09/04 11:45:09;;;;;;;;;18.75;17.75;;;;;;;;5035588;28;45410;-81
2021/09/04 11:47:36;;;;;;;;;21.25;19.50;;;;;;;;5025857;28;50843;-80
2021/09/04 11:50:02;;;;;;;;;21.00;19.00;;;;;;;;5035852;28;45573;-80
2021/09/04 11:52:35;;;;;;;;;20.00;18.25;;;;;;;;5037728;28;45780;-81
2021/09/04 11:55:05;;;;;;;;;20.75;19.25;;;;;;;;5038687;28;45413;-80
2021/09/04 11:57:32;;;;;;;;;18.50;16.50;;;;;;;;5035648;28;46711;-81
2021/09/04 12:00:11;;;;;;;;;17.75;17.50;;;;;;;;5035885;28;45719;-81
2021/09/04 12:02:41;;;;;;;;;18.50;17.00;;;;;;;;5026329;28;45527;-80
2021/09/04 12:05:06;;;;;;;;;19.50;18.25;;;;;;;;5035641;28;46081;-81
2021/09/04 12:07:34;;;;;;;;;20.50;18.75;;;;;;;;5035598;28;45502;-81
2021/09/04 12:10:00;;;;;;;;;18.50;17.50;;;;;;;;5038131;28;45589;-82
2021/09/04 12:12:27;;;;;;;;;16.00;14.50;;;;;;;;5034999;28;45501;-80
2021/09/04 12:14:52;;;;;;;;;15.00;13.75;;;;;;;;5034757;28;47255;-81
2021/09/04 12:17:18;;;;;;;;;14.00;13.00;;;;;;;;5033961;28;45489;-82
2021/09/04 12:19:43;;;;;;;;;10.00;9.33;;;;;;;;5033421;28;45792;-81
2021/09/04 12:22:08;;;;;;;;;11.00;11.00;;;;;;;;5035970;28;45649;-82
2021/09/04 12:24:33;;;;;;;;;11.00;11.00;;;;;;;;5032167;28;46277;-82
2021/09/04 12:26:59;;;;;;;;;10.00;9.00;;;;;;;;5031927;28;45617;-82
2021/09/04 12:29:28;;;;;;;;;10.75;9.75;;;;;;;;5031094;28;45736;-82
2021/09/04 12:32:03;;;;;;;;;10.00;8.75;;;;;;;;5026958;28;45477;-82
2021/09/04 12:34:28;;;;;;;;;8.50;7.75;;;;;;;;5031854;28;46322;-81
2021/09/04 12:36:54;;;;;;;;;7.00;5.67;;;;;;;;5033308;28;45329;-83
2021/09/04 12:39:21;;;;;;;;;6.50;6.00;;;;;;;;5031369;28;45887;-81
2021/09/04 12:41:47;;;;;;;;;3.75;3.75;;;;;;;;5030546;28;45348;-82
2021/09/04 12:44:14;;;;;;;;;5.00;5.00;;;;;;;;5032335;28;45875;-82
2021/09/04 12:46:42;;;;;;;;;6.00;6.00;;;;;;;;5034194;28;45493;-81
2021/09/04 12:49:22;;;;;;;;;6.00;4.50;;;;;;;;5025180;28;45489;-82
2021/09/04 12:52:08;;;;;;;;;5.75;3.75;;;;;;;;5031749;28;45294;-81
2021/09/04 12:54:35;;;;;;;;;5.25;5.25;;;;;;;;5024207;28;45402;-82
2021/09/04 12:57:05;;;;;;;;;3.75;3.75;;;;;;;;5031419;28;45537;-81
2021/09/04 12:59:40;;;;;;;;;4.00;4.00;;;;;;;;5030635;28;45466;-82
2021/09/04 13:02:07;;;;;;;;;2.25;2.00;;;;;;;;5030355;28;45658;-83
2021/09/04 13:04:32;;;;;;;;;4.25;4.25;;;;;;;;5030394;28;45973;-81
2021/09/04 13:07:00;;;;;;;;;6.00;4.25;;;;;;;;5032926;28;45244;-82
2021/09/04 13:09:25;;;;;;;;;4.25;4.25;;;;;;;;5031694;28;45752;-82
2021/09/04 13:11:51;;;;;;;;;5.33;5.33;;;;;;;;5031362;28;45465;-82
2021/09/04 13:14:16;;;;;;;;;5.33;5.33;;;;;;;;5029806;28;46357;-82
2021/09/04 13:16:41;;;;;;;;;5.00;5.00;;;;;;;;5032483;28;45576;-82
2021/09/04 13:19:06;;;;;;;;;5.00;4.67;;;;;;;;5033437;28;45398;-82
2021/09/04 13:21:31;;;;;;;;;7.00;7.00;;;;;;;;5030735;28;45470;-83
2021/09/04 13:23:57;;;;;;;;;6.67;5.00;;;;;;;;5032239;28;45779;-80
2021/09/04 13:26:22;;;;;;;;;6.00;5.00;;;;;;;;5030271;28;45327;-82
2021/09/04 13:28:47;;;;;;;;;5.00;5.00;;;;;;;;5030882;28;45320;-82
2021/09/04 13:31:12;;;;;;;;;5.00;5.00;;;;;;;;5028522;28;45419;-83
2021/09/04 13:33:37;;;;;;;;;7.00;5.25;;;;;;;;5029858;28;45899;-82
2021/09/04 13:36:04;;;;;;;;;6.00;6.00;;;;;;;;5030634;28;45725;-82
2021/09/04 13:38:29;;;;;;;;;5.00;5.00;;;;;;;;5031386;28;45414;-80
2021/09/04 13:40:54;;;;;;;;;4.67;4.67;;;;;;;;5031522;28;45381;-81
2021/09/04 13:43:20;;;;;;;;;6.75;6.00;;;;;;;;5034206;28;46070;-82
2021/09/04 13:45:45;;;;;;;;;9.00;6.67;;;;;;;;5020664;28;46294;-81
2021/09/04 13:48:10;;;;;;;;;9.50;7.25;;;;;;;;5018279;28;45512;-81
2021/09/04 13:50:35;;;;;;;;;9.00;8.00;;;;;;;;5017855;28;45352;-81
2021/09/04 13:53:01;;;;;;;;;7.00;7.00;;;;;;;;5013457;28;45475;-82
2021/09/04 13:55:26;;;;;;;;;7.00;6.33;;;;;;;;5018960;28;45486;-81
2021/09/04 13:57:51;;;;;;;;;7.00;7.00;;;;;;;;5018195;28;45572;-81
2021/09/04 14:00:17;;;;;;;;;8.33;8.00;;;;;;;;5017196;28;45461;-81
2021/09/04 14:02:42;;;;;;;;;8.00;7.50;;;;;;;;5014368;28;46363;-81
2021/09/04 14:05:07;;;;;;;;;9.67;8.33;;;;;;;;5027434;28;45638;-81
2021/09/04 14:07:32;;;;;;;;;10.50;8.25;;;;;;;;5032310;28;45660;-82
2021/09/04 14:09:58;;;;;;;;;8.33;8.00;;;;;;;;5032493;28;45445;-81
2021/09/04 14:12:23;;;;;;;;;8.00;8.00;;;;;;;;5024455;28;46499;-82
2021/09/04 14:14:48;;;;;;;;;8.33;8.33;;;;;;;;5030116;28;45417;-82